EKBI/BLL METAR and TAF weather

Enter ICAO airport designator
Station Type Date Time Source
EKBI METAR 2020/04/04 04:50 UTC NOAA

EKBI 040450Z AUTO 13001KT 9999 NCD M04/M04 Q1019


Station Type Date Time Source
EKBI Decoded METAR 2020/04/04 04:50 UTC NOAA

Billund Lufthavn, Denmark (EKBI) 55-44N 009-10E 79M
Apr 04, 2020 - 12:50 AM EDT / 2020.04.04 0450 UTC
Wind: from the SE (130 degrees) at 1 MPH (1 KT):0
Visibility: greater than 7 mile(s):0
Temperature: 24 F (-4 C)
Dew Point: 24 F (-4 C)
Relative Humidity: 100%
Pressure (altimeter): 30.09 in. Hg (1019 hPa)
ob: EKBI 040450Z AUTO 13001KT 9999 NCD M04/M04 Q1019
cycle: 5

Station Type Date Time Source
EKBI TAF 2020/04/03 18:18 UTC NOAA

TAF TAF EKBI 031713Z 0318/0418 30012KT 9999 SCT035
TEMPO 0318/0320 SCT030CB
BECMG 0320/0323 24005KT PROB40 0323/0405 4000 BR
BECMG 0409/0412 22015KT
TEMPO 0409/0413 4000 SHRA BKN012 SCT020CB

Example: see airport list